sensor_id;sensor_type;location;lat;lon;timestamp;temperature;humidity
14172;DHT22;7165;52.388;4.928;2023-07-31T00:01:15;17.40;99.90
14172;DHT22;7165;52.388;4.928;2023-07-31T00:03:42;17.50;99.90
14172;DHT22;7165;52.388;4.928;2023-07-31T00:06:08;17.50;99.90
14172;DHT22;7165;52.388;4.928;2023-07-31T00:08:35;17.40;99.90
14172;DHT22;7165;52.388;4.928;2023-07-31T00:11:03;17.40;99.90
14172;DHT22;7165;52.388;4.928;2023-07-31T00:13:29;17.50;99.90
14172;DHT22;7165;52.388;4.928;2023-07-31T00:15:56;17.40;99.90
14172;DHT22;7165;52.388;4.928;2023-07-31T00:18:22;17.40;99.90
14172;DHT22;7165;52.388;4.928;2023-07-31T00:20:49;17.40;99.90
14172;DHT22;7165;52.388;4.928;2023-07-31T00:23:15;17.40;99.90
14172;DHT22;7165;52.388;4.928;2023-07-31T00:25:42;17.40;99.90
14172;DHT22;7165;52.388;4.928;2023-07-31T00:28:10;17.40;99.90
14172;DHT22;7165;52.388;4.928;2023-07-31T00:30:36;17.40;99.90
14172;DHT22;7165;52.388;4.928;2023-07-31T00:33:03;17.40;99.90
14172;DHT22;7165;52.388;4.928;2023-07-31T00:35:30;17.40;99.90
14172;DHT22;7165;52.388;4.928;2023-07-31T00:37:57;17.40;99.90
14172;DHT22;7165;52.388;4.928;2023-07-31T00:40:24;17.40;99.90
14172;DHT22;7165;52.388;4.928;2023-07-31T00:42:50;17.40;99.90
14172;DHT22;7165;52.388;4.928;2023-07-31T00:45:18;17.40;99.90
14172;DHT22;7165;52.388;4.928;2023-07-31T00:47:45;17.40;99.90
14172;DHT22;7165;52.388;4.928;2023-07-31T00:50:12;17.50;99.90
14172;DHT22;7165;52.388;4.928;2023-07-31T00:52:39;17.50;99.90
14172;DHT22;7165;52.388;4.928;2023-07-31T00:55:06;17.50;99.90
14172;DHT22;7165;52.388;4.928;2023-07-31T00:57:33;17.50;99.90
14172;DHT22;7165;52.388;4.928;2023-07-31T01:00:01;17.50;99.90
14172;DHT22;7165;52.388;4.928;2023-07-31T01:02:29;17.50;99.90
14172;DHT22;7165;52.388;4.928;2023-07-31T01:04:56;17.50;99.90
14172;DHT22;7165;52.388;4.928;2023-07-31T01:07:25;17.60;99.90
14172;DHT22;7165;52.388;4.928;2023-07-31T01:09:56;17.60;99.90
14172;DHT22;7165;52.388;4.928;2023-07-31T01:12:23;17.60;99.90
14172;DHT22;7165;52.388;4.928;2023-07-31T01:15:02;17.60;99.90
14172;DHT22;7165;52.388;4.928;2023-07-31T01:17:30;17.60;99.90
14172;DHT22;7165;52.388;4.928;2023-07-31T01:20:02;17.60;99.90
14172;DHT22;7165;52.388;4.928;2023-07-31T01:22:39;17.60;99.90
14172;DHT22;7165;52.388;4.928;2023-07-31T01:25:19;17.60;99.90
14172;DHT22;7165;52.388;4.928;2023-07-31T01:27:56;17.60;99.90
14172;DHT22;7165;52.388;4.928;2023-07-31T01:30:28;17.50;99.90
14172;DHT22;7165;52.388;4.928;2023-07-31T01:32:59;17.60;99.90
14172;DHT22;7165;52.388;4.928;2023-07-31T01:35:28;17.50;99.90
14172;DHT22;7165;52.388;4.928;2023-07-31T01:37:54;17.50;99.90
14172;DHT22;7165;52.388;4.928;2023-07-31T01:40:21;17.50;99.90
14172;DHT22;7165;52.388;4.928;2023-07-31T01:42:49;17.50;99.90
14172;DHT22;7165;52.388;4.928;2023-07-31T01:45:16;17.50;99.90
14172;DHT22;7165;52.388;4.928;2023-07-31T01:47:42;17.50;99.90
14172;DHT22;7165;52.388;4.928;2023-07-31T01:50:09;17.50;99.90
14172;DHT22;7165;52.388;4.928;2023-07-31T01:52:36;17.50;99.90
14172;DHT22;7165;52.388;4.928;2023-07-31T01:55:03;17.50;99.90
14172;DHT22;7165;52.388;4.928;2023-07-31T01:57:30;17.50;99.90
14172;DHT22;7165;52.388;4.928;2023-07-31T01:59:57;17.50;99.90
14172;DHT22;7165;52.388;4.928;2023-07-31T02:02:24;17.50;99.90
14172;DHT22;7165;52.388;4.928;2023-07-31T02:04:51;17.50;99.90
14172;DHT22;7165;52.388;4.928;2023-07-31T02:07:17;17.50;99.90
14172;DHT22;7165;52.388;4.928;2023-07-31T02:09:44;17.60;99.90
14172;DHT22;7165;52.388;4.928;2023-07-31T02:12:12;17.60;99.90
14172;DHT22;7165;52.388;4.928;2023-07-31T02:14:40;17.60;99.90
14172;DHT22;7165;52.388;4.928;2023-07-31T02:17:08;17.60;99.90
14172;DHT22;7165;52.388;4.928;2023-07-31T02:19:34;17.60;99.90
14172;DHT22;7165;52.388;4.928;2023-07-31T02:22:01;17.60;99.90
14172;DHT22;7165;52.388;4.928;2023-07-31T02:24:28;17.60;99.90
14172;DHT22;7165;52.388;4.928;2023-07-31T02:26:54;17.60;99.90
14172;DHT22;7165;52.388;4.928;2023-07-31T02:29:21;17.60;99.90
14172;DHT22;7165;52.388;4.928;2023-07-31T02:31:48;17.60;99.90
14172;DHT22;7165;52.388;4.928;2023-07-31T02:34:16;17.70;99.90
14172;DHT22;7165;52.388;4.928;2023-07-31T02:36:43;17.60;99.90
14172;DHT22;7165;52.388;4.928;2023-07-31T02:39:09;17.70;99.90
14172;DHT22;7165;52.388;4.928;2023-07-31T02:41:36;17.60;99.90
14172;DHT22;7165;52.388;4.928;2023-07-31T02:44:03;17.60;99.90
14172;DHT22;7165;52.388;4.928;2023-07-31T02:46:29;17.60;99.90
14172;DHT22;7165;52.388;4.928;2023-07-31T02:48:57;17.60;99.90
14172;DHT22;7165;52.388;4.928;2023-07-31T02:51:25;17.60;99.90
14172;DHT22;7165;52.388;4.928;2023-07-31T02:53:51;17.60;99.90
14172;DHT22;7165;52.388;4.928;2023-07-31T02:56:18;17.60;99.90
14172;DHT22;7165;52.388;4.928;2023-07-31T02:58:45;17.50;99.90
14172;DHT22;7165;52.388;4.928;2023-07-31T03:01:11;17.60;99.90
14172;DHT22;7165;52.388;4.928;2023-07-31T03:03:38;17.60;99.90
14172;DHT22;7165;52.388;4.928;2023-07-31T03:06:05;17.60;99.90
14172;DHT22;7165;52.388;4.928;2023-07-31T03:08:33;17.60;99.90
14172;DHT22;7165;52.388;4.928;2023-07-31T03:10:59;17.60;99.90
14172;DHT22;7165;52.388;4.928;2023-07-31T03:13:26;17.60;99.90
14172;DHT22;7165;52.388;4.928;2023-07-31T03:15:53;17.60;99.90
14172;DHT22;7165;52.388;4.928;2023-07-31T03:18:20;17.60;99.90
14172;DHT22;7165;52.388;4.928;2023-07-31T03:20:46;17.60;99.90
14172;DHT22;7165;52.388;4.928;2023-07-31T03:23:13;17.60;99.90
14172;DHT22;7165;52.388;4.928;2023-07-31T03:25:55;17.60;99.90
14172;DHT22;7165;52.388;4.928;2023-07-31T03:28:22;17.60;99.90
14172;DHT22;7165;52.388;4.928;2023-07-31T03:30:48;17.60;99.90
14172;DHT22;7165;52.388;4.928;2023-07-31T03:33:15;17.70;99.90
14172;DHT22;7165;52.388;4.928;2023-07-31T03:35:42;17.60;99.90
14172;DHT22;7165;52.388;4.928;2023-07-31T03:38:08;17.70;99.90
14172;DHT22;7165;52.388;4.928;2023-07-31T03:40:35;17.60;99.90
14172;DHT22;7165;52.388;4.928;2023-07-31T03:43:03;17.60;99.90
14172;DHT22;7165;52.388;4.928;2023-07-31T03:45:30;17.70;99.90
14172;DHT22;7165;52.388;4.928;2023-07-31T03:47:56;17.70;99.90
14172;DHT22;7165;52.388;4.928;2023-07-31T03:50:23;17.70;99.90
14172;DHT22;7165;52.388;4.928;2023-07-31T03:52:50;17.70;99.90
14172;DHT22;7165;52.388;4.928;2023-07-31T03:55:17;17.70;99.90
14172;DHT22;7165;52.388;4.928;2023-07-31T03:57:45;17.60;99.90
14172;DHT22;7165;52.388;4.928;2023-07-31T04:00:13;17.60;99.90
14172;DHT22;7165;52.388;4.928;2023-07-31T04:02:40;17.60;99.90
14172;DHT22;7165;52.388;4.928;2023-07-31T04:05:07;17.60;99.90
14172;DHT22;7165;52.388;4.928;2023-07-31T04:07:34;17.60;99.90
14172;DHT22;7165;52.388;4.928;2023-07-31T04:10:01;17.60;99.90
14172;DHT22;7165;52.388;4.928;2023-07-31T04:12:28;17.60;99.90
14172;DHT22;7165;52.388;4.928;2023-07-31T04:14:55;17.50;99.90
14172;DHT22;7165;52.388;4.928;2023-07-31T04:17:23;17.60;99.90
14172;DHT22;7165;52.388;4.928;2023-07-31T04:19:50;17.60;99.90
14172;DHT22;7165;52.388;4.928;2023-07-31T04:22:17;17.50;99.90
14172;DHT22;7165;52.388;4.928;2023-07-31T04:24:43;17.50;99.90
14172;DHT22;7165;52.388;4.928;2023-07-31T04:27:10;17.50;99.90
14172;DHT22;7165;52.388;4.928;2023-07-31T04:29:37;17.50;99.90
14172;DHT22;7165;52.388;4.928;2023-07-31T04:32:05;17.50;99.90
14172;DHT22;7165;52.388;4.928;2023-07-31T04:34:33;17.60;99.90
14172;DHT22;7165;52.388;4.928;2023-07-31T04:37:00;17.60;99.90
14172;DHT22;7165;52.388;4.928;2023-07-31T04:39:27;17.60;99.90
14172;DHT22;7165;52.388;4.928;2023-07-31T04:41:53;17.60;99.90
14172;DHT22;7165;52.388;4.928;2023-07-31T04:44:20;17.60;99.90
14172;DHT22;7165;52.388;4.928;2023-07-31T04:46:47;17.60;99.90
14172;DHT22;7165;52.388;4.928;2023-07-31T04:49:13;17.60;99.90
14172;DHT22;7165;52.388;4.928;2023-07-31T04:51:41;17.50;99.90
14172;DHT22;7165;52.388;4.928;2023-07-31T04:54:08;17.50;99.90
14172;DHT22;7165;52.388;4.928;2023-07-31T04:56:38;17.50;99.90
14172;DHT22;7165;52.388;4.928;2023-07-31T04:59:04;17.50;99.90
14172;DHT22;7165;52.388;4.928;2023-07-31T05:01:31;17.40;99.90
14172;DHT22;7165;52.388;4.928;2023-07-31T05:03:58;17.40;99.90
14172;DHT22;7165;52.388;4.928;2023-07-31T05:06:24;17.40;99.90
14172;DHT22;7165;52.388;4.928;2023-07-31T05:08:53;17.40;99.90
14172;DHT22;7165;52.388;4.928;2023-07-31T05:11:20;17.40;99.90
14172;DHT22;7165;52.388;4.928;2023-07-31T05:13:46;17.30;99.90
14172;DHT22;7165;52.388;4.928;2023-07-31T05:16:13;17.30;99.90
14172;DHT22;7165;52.388;4.928;2023-07-31T05:18:39;17.30;99.90
14172;DHT22;7165;52.388;4.928;2023-07-31T05:21:06;17.30;99.90
14172;DHT22;7165;52.388;4.928;2023-07-31T05:23:32;17.30;99.90
14172;DHT22;7165;52.388;4.928;2023-07-31T05:26:03;17.30;99.90
14172;DHT22;7165;52.388;4.928;2023-07-31T05:28:30;17.30;99.90
14172;DHT22;7165;52.388;4.928;2023-07-31T05:30:58;17.30;99.90
14172;DHT22;7165;52.388;4.928;2023-07-31T05:33:25;17.30;99.90
14172;DHT22;7165;52.388;4.928;2023-07-31T05:35:51;17.30;99.90
14172;DHT22;7165;52.388;4.928;2023-07-31T05:38:18;17.30;99.90
14172;DHT22;7165;52.388;4.928;2023-07-31T05:40:44;17.30;99.90
14172;DHT22;7165;52.388;4.928;2023-07-31T05:43:12;17.30;99.90
14172;DHT22;7165;52.388;4.928;2023-07-31T05:45:39;17.40;99.90
14172;DHT22;7165;52.388;4.928;2023-07-31T05:48:06;17.40;99.90
14172;DHT22;7165;52.388;4.928;2023-07-31T05:50:32;17.40;99.90
14172;DHT22;7165;52.388;4.928;2023-07-31T05:52:59;17.40;99.90
14172;DHT22;7165;52.388;4.928;2023-07-31T05:55:26;17.40;99.90
14172;DHT22;7165;52.388;4.928;2023-07-31T05:57:53;17.30;99.90
14172;DHT22;7165;52.388;4.928;2023-07-31T06:00:21;17.30;99.90
14172;DHT22;7165;52.388;4.928;2023-07-31T06:02:48;17.20;99.90
14172;DHT22;7165;52.388;4.928;2023-07-31T06:05:14;17.20;99.90
14172;DHT22;7165;52.388;4.928;2023-07-31T06:07:41;17.20;99.90
14172;DHT22;7165;52.388;4.928;2023-07-31T06:10:07;17.10;99.90
14172;DHT22;7165;52.388;4.928;2023-07-31T06:12:34;17.00;99.90
14172;DHT22;7165;52.388;4.928;2023-07-31T06:15:01;17.00;99.90
14172;DHT22;7165;52.388;4.928;2023-07-31T06:17:29;17.00;99.90
14172;DHT22;7165;52.388;4.928;2023-07-31T06:19:56;17.00;99.90
14172;DHT22;7165;52.388;4.928;2023-07-31T06:22:23;17.00;99.90
14172;DHT22;7165;52.388;4.928;2023-07-31T06:24:49;17.00;99.90
14172;DHT22;7165;52.388;4.928;2023-07-31T06:27:16;17.00;99.90
14172;DHT22;7165;52.388;4.928;2023-07-31T06:29:42;17.10;99.90
14172;DHT22;7165;52.388;4.928;2023-07-31T06:32:09;17.10;99.90
14172;DHT22;7165;52.388;4.928;2023-07-31T06:34:37;17.10;99.90
14172;DHT22;7165;52.388;4.928;2023-07-31T06:37:04;17.10;99.90
14172;DHT22;7165;52.388;4.928;2023-07-31T06:39:31;17.10;99.90
14172;DHT22;7165;52.388;4.928;2023-07-31T06:41:57;17.10;99.90
14172;DHT22;7165;52.388;4.928;2023-07-31T06:44:24;17.10;99.90
14172;DHT22;7165;52.388;4.928;2023-07-31T06:46:51;17.10;99.90
14172;DHT22;7165;52.388;4.928;2023-07-31T06:49:18;17.10;99.90
14172;DHT22;7165;52.388;4.928;2023-07-31T06:51:46;17.10;99.90
14172;DHT22;7165;52.388;4.928;2023-07-31T06:54:12;17.10;99.90
14172;DHT22;7165;52.388;4.928;2023-07-31T06:56:39;17.20;99.90
14172;DHT22;7165;52.388;4.928;2023-07-31T06:59:07;17.20;99.90
14172;DHT22;7165;52.388;4.928;2023-07-31T07:01:33;17.30;99.90
14172;DHT22;7165;52.388;4.928;2023-07-31T07:04:00;17.30;99.90
14172;DHT22;7165;52.388;4.928;2023-07-31T07:06:27;17.30;99.90
14172;DHT22;7165;52.388;4.928;2023-07-31T07:08:55;17.40;99.90
14172;DHT22;7165;52.388;4.928;2023-07-31T07:11:21;17.40;99.90
14172;DHT22;7165;52.388;4.928;2023-07-31T07:13:48;17.50;99.90
14172;DHT22;7165;52.388;4.928;2023-07-31T07:16:15;17.50;99.90
14172;DHT22;7165;52.388;4.928;2023-07-31T07:18:41;17.50;99.90
14172;DHT22;7165;52.388;4.928;2023-07-31T07:21:08;17.60;99.90
14172;DHT22;7165;52.388;4.928;2023-07-31T07:23:35;17.70;99.90
14172;DHT22;7165;52.388;4.928;2023-07-31T07:26:03;17.70;99.90
14172;DHT22;7165;52.388;4.928;2023-07-31T07:28:29;17.80;99.90
14172;DHT22;7165;52.388;4.928;2023-07-31T07:30:56;17.80;99.90
14172;DHT22;7165;52.388;4.928;2023-07-31T07:33:23;17.90;99.90
14172;DHT22;7165;52.388;4.928;2023-07-31T07:35:50;17.90;99.90
14172;DHT22;7165;52.388;4.928;2023-07-31T07:38:17;17.90;99.90
14172;DHT22;7165;52.388;4.928;2023-07-31T07:40:44;18.00;99.90
14172;DHT22;7165;52.388;4.928;2023-07-31T07:43:13;18.00;99.90
14172;DHT22;7165;52.388;4.928;2023-07-31T07:45:40;18.10;99.90
14172;DHT22;7165;52.388;4.928;2023-07-31T07:48:06;18.10;99.90
14172;DHT22;7165;52.388;4.928;2023-07-31T07:50:33;18.10;99.90
14172;DHT22;7165;52.388;4.928;2023-07-31T07:53:00;18.10;99.90
14172;DHT22;7165;52.388;4.928;2023-07-31T07:55:26;18.20;99.90
14172;DHT22;7165;52.388;4.928;2023-07-31T07:57:53;18.20;99.90
14172;DHT22;7165;52.388;4.928;2023-07-31T08:00:21;18.30;99.90
14172;DHT22;7165;52.388;4.928;2023-07-31T08:02:48;18.30;99.90
14172;DHT22;7165;52.388;4.928;2023-07-31T08:05:15;18.40;99.90
14172;DHT22;7165;52.388;4.928;2023-07-31T08:07:43;18.40;99.90
14172;DHT22;7165;52.388;4.928;2023-07-31T08:10:09;18.40;99.90
14172;DHT22;7165;52.388;4.928;2023-07-31T08:12:36;18.40;99.90
14172;DHT22;7165;52.388;4.928;2023-07-31T08:15:03;18.40;99.90
14172;DHT22;7165;52.388;4.928;2023-07-31T08:17:32;18.40;99.90
14172;DHT22;7165;52.388;4.928;2023-07-31T08:19:58;18.40;99.90
14172;DHT22;7165;52.388;4.928;2023-07-31T08:22:25;18.40;99.90
14172;DHT22;7165;52.388;4.928;2023-07-31T08:24:51;18.40;99.90
14172;DHT22;7165;52.388;4.928;2023-07-31T08:27:18;18.40;99.90
14172;DHT22;7165;52.388;4.928;2023-07-31T08:29:45;18.40;99.90
14172;DHT22;7165;52.388;4.928;2023-07-31T08:32:12;18.40;99.90
14172;DHT22;7165;52.388;4.928;2023-07-31T08:34:39;18.40;99.90
14172;DHT22;7165;52.388;4.928;2023-07-31T08:37:07;18.40;99.90
14172;DHT22;7165;52.388;4.928;2023-07-31T08:39:33;18.50;99.90
14172;DHT22;7165;52.388;4.928;2023-07-31T08:42:00;18.50;99.90
14172;DHT22;7165;52.388;4.928;2023-07-31T08:44:27;18.60;99.90
14172;DHT22;7165;52.388;4.928;2023-07-31T08:46:54;18.60;99.90
14172;DHT22;7165;52.388;4.928;2023-07-31T08:49:21;18.60;99.90
14172;DHT22;7165;52.388;4.928;2023-07-31T08:51:50;18.60;99.90
14172;DHT22;7165;52.388;4.928;2023-07-31T08:54:18;18.70;99.90
14172;DHT22;7165;52.388;4.928;2023-07-31T08:56:45;18.70;99.90
14172;DHT22;7165;52.388;4.928;2023-07-31T08:59:13;18.70;99.90
14172;DHT22;7165;52.388;4.928;2023-07-31T09:01:43;18.70;99.90
14172;DHT22;7165;52.388;4.928;2023-07-31T09:04:10;18.70;99.90
14172;DHT22;7165;52.388;4.928;2023-07-31T09:06:39;18.70;99.90
14172;DHT22;7165;52.388;4.928;2023-07-31T09:09:08;18.80;99.90
14172;DHT22;7165;52.388;4.928;2023-07-31T09:11:35;18.70;99.90
14172;DHT22;7165;52.388;4.928;2023-07-31T09:14:02;18.70;99.90
14172;DHT22;7165;52.388;4.928;2023-07-31T09:16:34;18.70;99.90
14172;DHT22;7165;52.388;4.928;2023-07-31T09:19:00;18.80;99.90
14172;DHT22;7165;52.388;4.928;2023-07-31T09:21:28;18.80;99.90
14172;DHT22;7165;52.388;4.928;2023-07-31T09:23:55;18.80;99.90
14172;DHT22;7165;52.388;4.928;2023-07-31T09:26:34;18.90;99.90
14172;DHT22;7165;52.388;4.928;2023-07-31T09:29:01;18.90;99.90
14172;DHT22;7165;52.388;4.928;2023-07-31T09:31:42;18.90;99.90
14172;DHT22;7165;52.388;4.928;2023-07-31T09:34:10;18.90;99.90
14172;DHT22;7165;52.388;4.928;2023-07-31T09:36:42;19.00;99.90
14172;DHT22;7165;52.388;4.928;2023-07-31T09:39:10;19.00;99.90
14172;DHT22;7165;52.388;4.928;2023-07-31T09:41:39;19.00;99.90
14172;DHT22;7165;52.388;4.928;2023-07-31T09:44:06;19.10;99.90
14172;DHT22;7165;52.388;4.928;2023-07-31T09:46:35;19.10;99.90
14172;DHT22;7165;52.388;4.928;2023-07-31T09:49:06;19.10;99.90
14172;DHT22;7165;52.388;4.928;2023-07-31T09:51:34;19.00;99.90
14172;DHT22;7165;52.388;4.928;2023-07-31T09:54:08;19.10;99.90
14172;DHT22;7165;52.388;4.928;2023-07-31T09:56:36;19.10;99.90
14172;DHT22;7165;52.388;4.928;2023-07-31T09:59:05;19.10;99.90
14172;DHT22;7165;52.388;4.928;2023-07-31T10:01:32;19.10;99.90
14172;DHT22;7165;52.388;4.928;2023-07-31T10:04:00;19.10;99.90
14172;DHT22;7165;52.388;4.928;2023-07-31T10:06:28;19.10;99.90
14172;DHT22;7165;52.388;4.928;2023-07-31T10:08:56;19.20;99.90
14172;DHT22;7165;52.388;4.928;2023-07-31T10:11:25;19.20;99.90
14172;DHT22;7165;52.388;4.928;2023-07-31T10:13:54;19.20;99.90
14172;DHT22;7165;52.388;4.928;2023-07-31T10:16:23;19.20;99.90
14172;DHT22;7165;52.388;4.928;2023-07-31T10:18:50;19.30;99.90
14172;DHT22;7165;52.388;4.928;2023-07-31T10:21:18;19.40;99.90
14172;DHT22;7165;52.388;4.928;2023-07-31T10:23:45;19.50;99.90
14172;DHT22;7165;52.388;4.928;2023-07-31T10:26:13;19.50;99.90
14172;DHT22;7165;52.388;4.928;2023-07-31T10:28:41;19.60;99.90
14172;DHT22;7165;52.388;4.928;2023-07-31T10:31:08;19.80;99.90
14172;DHT22;7165;52.388;4.928;2023-07-31T10:33:36;19.80;99.90
14172;DHT22;7165;52.388;4.928;2023-07-31T10:36:13;19.80;99.90
14172;DHT22;7165;52.388;4.928;2023-07-31T10:38:40;19.90;99.90
14172;DHT22;7165;52.388;4.928;2023-07-31T10:41:10;19.90;99.90
14172;DHT22;7165;52.388;4.928;2023-07-31T10:43:37;19.90;99.90
14172;DHT22;7165;52.388;4.928;2023-07-31T10:46:07;19.90;99.90
14172;DHT22;7165;52.388;4.928;2023-07-31T10:48:36;19.90;99.90
14172;DHT22;7165;52.388;4.928;2023-07-31T10:51:08;19.90;99.90
14172;DHT22;7165;52.388;4.928;2023-07-31T10:53:36;19.90;99.90
14172;DHT22;7165;52.388;4.928;2023-07-31T10:56:04;19.90;99.90
14172;DHT22;7165;52.388;4.928;2023-07-31T10:58:32;19.90;99.90
14172;DHT22;7165;52.388;4.928;2023-07-31T11:01:00;19.90;99.90
14172;DHT22;7165;52.388;4.928;2023-07-31T11:03:42;20.00;99.90
14172;DHT22;7165;52.388;4.928;2023-07-31T11:06:10;20.00;99.90
14172;DHT22;7165;52.388;4.928;2023-07-31T11:08:42;20.10;99.90
14172;DHT22;7165;52.388;4.928;2023-07-31T11:11:10;20.00;99.90
14172;DHT22;7165;52.388;4.928;2023-07-31T11:13:42;20.00;99.90
14172;DHT22;7165;52.388;4.928;2023-07-31T11:16:10;19.90;99.90
14172;DHT22;7165;52.388;4.928;2023-07-31T11:18:38;19.90;99.90
14172;DHT22;7165;52.388;4.928;2023-07-31T11:21:07;19.80;99.90
14172;DHT22;7165;52.388;4.928;2023-07-31T11:23:37;19.90;99.90
14172;DHT22;7165;52.388;4.928;2023-07-31T11:26:05;19.90;99.90
14172;DHT22;7165;52.388;4.928;2023-07-31T11:28:33;20.00;99.90
14172;DHT22;7165;52.388;4.928;2023-07-31T11:31:00;20.00;99.90
14172;DHT22;7165;52.388;4.928;2023-07-31T11:33:27;20.20;99.90
14172;DHT22;7165;52.388;4.928;2023-07-31T11:35:54;20.20;99.90
14172;DHT22;7165;52.388;4.928;2023-07-31T11:38:23;20.20;99.90
14172;DHT22;7165;52.388;4.928;2023-07-31T11:40:50;20.20;99.90
14172;DHT22;7165;52.388;4.928;2023-07-31T11:43:18;20.20;99.90
14172;DHT22;7165;52.388;4.928;2023-07-31T11:45:47;20.20;99.90
14172;DHT22;7165;52.388;4.928;2023-07-31T11:48:22;20.20;99.90
14172;DHT22;7165;52.388;4.928;2023-07-31T11:50:50;20.30;99.90
14172;DHT22;7165;52.388;4.928;2023-07-31T11:53:20;20.30;99.90
14172;DHT22;7165;52.388;4.928;2023-07-31T11:55:49;20.30;99.90
14172;DHT22;7165;52.388;4.928;2023-07-31T11:58:17;20.30;99.90
14172;DHT22;7165;52.388;4.928;2023-07-31T12:00:44;20.30;99.90
14172;DHT22;7165;52.388;4.928;2023-07-31T12:03:12;20.20;99.90
14172;DHT22;7165;52.388;4.928;2023-07-31T12:05:38;20.20;99.90
14172;DHT22;7165;52.388;4.928;2023-07-31T12:08:09;20.10;99.90
14172;DHT22;7165;52.388;4.928;2023-07-31T12:10:36;20.10;99.90
14172;DHT22;7165;52.388;4.928;2023-07-31T12:13:05;20.10;99.90
14172;DHT22;7165;52.388;4.928;2023-07-31T12:15:33;20.00;99.90
14172;DHT22;7165;52.388;4.928;2023-07-31T12:18:04;20.00;99.90
14172;DHT22;7165;52.388;4.928;2023-07-31T12:20:32;20.10;99.90
14172;DHT22;7165;52.388;4.928;2023-07-31T12:22:59;20.10;99.90
14172;DHT22;7165;52.388;4.928;2023-07-31T12:25:30;20.10;99.90
14172;DHT22;7165;52.388;4.928;2023-07-31T12:27:57;20.10;99.90
14172;DHT22;7165;52.388;4.928;2023-07-31T12:30:29;20.20;99.90
14172;DHT22;7165;52.388;4.928;2023-07-31T12:32:56;20.20;99.90
14172;DHT22;7165;52.388;4.928;2023-07-31T12:35:22;20.30;99.90
14172;DHT22;7165;52.388;4.928;2023-07-31T12:37:49;20.40;99.90
14172;DHT22;7165;52.388;4.928;2023-07-31T12:40:16;20.50;99.90
14172;DHT22;7165;52.388;4.928;2023-07-31T12:42:42;20.40;99.90
14172;DHT22;7165;52.388;4.928;2023-07-31T12:45:09;20.40;99.90
14172;DHT22;7165;52.388;4.928;2023-07-31T12:47:37;20.40;99.90
14172;DHT22;7165;52.388;4.928;2023-07-31T12:50:05;20.40;99.90
14172;DHT22;7165;52.388;4.928;2023-07-31T12:52:32;20.40;99.90
14172;DHT22;7165;52.388;4.928;2023-07-31T12:54:59;20.40;99.90
14172;DHT22;7165;52.388;4.928;2023-07-31T12:57:25;20.40;99.90
14172;DHT22;7165;52.388;4.928;2023-07-31T12:59:52;20.40;99.90
14172;DHT22;7165;52.388;4.928;2023-07-31T13:02:19;20.50;99.90
14172;DHT22;7165;52.388;4.928;2023-07-31T13:04:47;20.60;99.90
14172;DHT22;7165;52.388;4.928;2023-07-31T13:07:13;20.70;99.90
14172;DHT22;7165;52.388;4.928;2023-07-31T13:09:40;20.80;99.90
14172;DHT22;7165;52.388;4.928;2023-07-31T13:12:07;20.90;99.90
14172;DHT22;7165;52.388;4.928;2023-07-31T13:14:34;21.00;99.90
14172;DHT22;7165;52.388;4.928;2023-07-31T13:17:01;21.10;99.90
14172;DHT22;7165;52.388;4.928;2023-07-31T13:19:27;21.10;99.90
14172;DHT22;7165;52.388;4.928;2023-07-31T13:21:55;21.10;99.90
14172;DHT22;7165;52.388;4.928;2023-07-31T13:24:22;21.10;99.90
14172;DHT22;7165;52.388;4.928;2023-07-31T13:26:49;21.10;99.90
14172;DHT22;7165;52.388;4.928;2023-07-31T13:29:16;21.00;99.90
14172;DHT22;7165;52.388;4.928;2023-07-31T13:31:42;21.00;99.90
14172;DHT22;7165;52.388;4.928;2023-07-31T13:34:09;20.90;99.90
14172;DHT22;7165;52.388;4.928;2023-07-31T13:36:36;20.90;99.90
14172;DHT22;7165;52.388;4.928;2023-07-31T13:39:04;20.90;99.90
14172;DHT22;7165;52.388;4.928;2023-07-31T13:41:30;20.90;99.90
14172;DHT22;7165;52.388;4.928;2023-07-31T13:43:57;20.90;99.90
14172;DHT22;7165;52.388;4.928;2023-07-31T13:46:24;20.80;99.90
14172;DHT22;7165;52.388;4.928;2023-07-31T13:48:51;20.70;99.90
14172;DHT22;7165;52.388;4.928;2023-07-31T13:51:20;20.60;99.90
14172;DHT22;7165;52.388;4.928;2023-07-31T13:53:46;20.60;99.90
14172;DHT22;7165;52.388;4.928;2023-07-31T13:56:14;20.50;99.90
14172;DHT22;7165;52.388;4.928;2023-07-31T13:58:41;20.40;99.90
14172;DHT22;7165;52.388;4.928;2023-07-31T14:01:08;20.40;99.90
14172;DHT22;7165;52.388;4.928;2023-07-31T14:03:35;20.30;99.90
14172;DHT22;7165;52.388;4.928;2023-07-31T14:06:02;20.20;99.90
14172;DHT22;7165;52.388;4.928;2023-07-31T14:08:29;20.10;99.90
14172;DHT22;7165;52.388;4.928;2023-07-31T14:10:56;20.00;99.90
14172;DHT22;7165;52.388;4.928;2023-07-31T14:13:24;19.90;99.90
14172;DHT22;7165;52.388;4.928;2023-07-31T14:15:51;19.80;99.90
14172;DHT22;7165;52.388;4.928;2023-07-31T14:18:18;19.60;99.90
14172;DHT22;7165;52.388;4.928;2023-07-31T14:20:45;19.50;99.90
14172;DHT22;7165;52.388;4.928;2023-07-31T14:23:12;19.40;99.90
14172;DHT22;7165;52.388;4.928;2023-07-31T14:25:38;19.40;99.90
14172;DHT22;7165;52.388;4.928;2023-07-31T14:28:05;19.30;99.90
14172;DHT22;7165;52.388;4.928;2023-07-31T14:30:33;19.30;99.90
14172;DHT22;7165;52.388;4.928;2023-07-31T14:33:00;19.30;99.90
14172;DHT22;7165;52.388;4.928;2023-07-31T14:35:27;19.30;99.90
14172;DHT22;7165;52.388;4.928;2023-07-31T14:37:54;19.30;99.90
14172;DHT22;7165;52.388;4.928;2023-07-31T14:40:21;19.30;99.90
14172;DHT22;7165;52.388;4.928;2023-07-31T14:42:48;19.40;99.90
14172;DHT22;7165;52.388;4.928;2023-07-31T14:45:14;19.40;99.90
14172;DHT22;7165;52.388;4.928;2023-07-31T14:47:42;19.40;99.90
14172;DHT22;7165;52.388;4.928;2023-07-31T14:50:10;19.50;99.90
14172;DHT22;7165;52.388;4.928;2023-07-31T14:52:37;19.50;99.90
14172;DHT22;7165;52.388;4.928;2023-07-31T14:55:04;19.60;99.90
14172;DHT22;7165;52.388;4.928;2023-07-31T14:57:31;19.70;99.90
14172;DHT22;7165;52.388;4.928;2023-07-31T14:59:58;19.70;99.90
14172;DHT22;7165;52.388;4.928;2023-07-31T15:02:26;19.70;99.90
14172;DHT22;7165;52.388;4.928;2023-07-31T15:04:54;19.70;99.90
14172;DHT22;7165;52.388;4.928;2023-07-31T15:07:21;19.70;99.90
14172;DHT22;7165;52.388;4.928;2023-07-31T15:09:48;19.80;99.90
14172;DHT22;7165;52.388;4.928;2023-07-31T15:12:14;19.80;99.90
14172;DHT22;7165;52.388;4.928;2023-07-31T15:14:41;19.80;99.90
14172;DHT22;7165;52.388;4.928;2023-07-31T15:17:08;19.80;99.90
14172;DHT22;7165;52.388;4.928;2023-07-31T15:19:34;19.80;99.90
14172;DHT22;7165;52.388;4.928;2023-07-31T15:22:04;19.80;99.90
14172;DHT22;7165;52.388;4.928;2023-07-31T15:24:31;19.80;99.90
14172;DHT22;7165;52.388;4.928;2023-07-31T15:26:58;19.80;99.90
14172;DHT22;7165;52.388;4.928;2023-07-31T15:29:27;19.80;99.90
14172;DHT22;7165;52.388;4.928;2023-07-31T15:31:54;19.80;99.90
14172;DHT22;7165;52.388;4.928;2023-07-31T15:34:20;19.80;99.90
14172;DHT22;7165;52.388;4.928;2023-07-31T15:36:47;19.80;99.90
14172;DHT22;7165;52.388;4.928;2023-07-31T15:39:15;19.80;99.90
14172;DHT22;7165;52.388;4.928;2023-07-31T15:41:42;19.80;99.90
14172;DHT22;7165;52.388;4.928;2023-07-31T15:44:09;19.70;99.90
14172;DHT22;7165;52.388;4.928;2023-07-31T15:46:35;19.70;99.90